Time;durP1;ratioP1;P1;durP2;ratioP2;P2;SDS_P1;SDS_P2;PMS_P1;PMS_P2;Temp;Humidity;BMP_temperature;BMP_pressure;BME280_temperature;BME280_humidity;BME280_pressure;Samples;Min_cycle;Max_cycle;Signal;HPM_P1;HPM_P2
2023/12/26 00:00:15;;;;;;;3.40;1.50;;;9.20;99.90;;;;;;5023765;28;20036;-71
2023/12/26 00:02:40;;;;;;;2.47;1.55;;;9.10;99.90;;;;;;5016173;28;20075;-71
2023/12/26 00:05:06;;;;;;;4.15;1.27;;;9.00;99.90;;;;;;5042791;28;20087;-70
2023/12/26 00:07:32;;;;;;;2.58;1.40;;;9.10;99.90;;;;;;5041031;28;20400;-71
2023/12/26 00:09:58;;;;;;;2.53;1.15;;;9.00;99.90;;;;;;5042116;28;20041;-71
2023/12/26 00:12:24;;;;;;;2.17;1.10;;;9.10;99.90;;;;;;5039376;28;20187;-69
2023/12/26 00:14:50;;;;;;;2.13;1.13;;;9.10;99.90;;;;;;5029980;28;20029;-70
2023/12/26 00:17:16;;;;;;;4.10;1.33;;;9.10;99.90;;;;;;5027550;28;20056;-71
2023/12/26 00:19:42;;;;;;;3.75;1.60;;;9.00;99.90;;;;;;5021138;28;20037;-69
2023/12/26 00:22:07;;;;;;;2.80;1.88;;;9.10;99.90;;;;;;5016911;28;20038;-70
2023/12/26 00:24:33;;;;;;;4.50;1.80;;;9.10;99.90;;;;;;5025105;28;20053;-69
2023/12/26 00:26:59;;;;;;;2.53;1.60;;;9.20;99.90;;;;;;5025460;28;20048;-70
2023/12/26 00:29:24;;;;;;;3.33;1.67;;;9.20;99.90;;;;;;5009275;28;20136;-69
2023/12/26 00:31:50;;;;;;;4.00;1.67;;;9.10;99.90;;;;;;5021395;28;20060;-68
2023/12/26 00:34:16;;;;;;;3.03;1.20;;;9.30;99.90;;;;;;5020254;28;20457;-68
2023/12/26 00:36:41;;;;;;;3.03;1.50;;;9.10;99.90;;;;;;5020875;28;20123;-69
2023/12/26 00:39:07;;;;;;;2.25;1.27;;;9.30;99.90;;;;;;5021872;28;20029;-70
2023/12/26 00:41:33;;;;;;;1.63;1.00;;;9.30;99.90;;;;;;5024520;28;20045;-70
2023/12/26 00:43:58;;;;;;;3.88;1.40;;;9.00;99.90;;;;;;5023817;28;20087;-70
2023/12/26 00:46:24;;;;;;;4.43;1.38;;;9.20;99.90;;;;;;5027366;28;20049;-70
2023/12/26 00:48:50;;;;;;;2.90;1.33;;;9.00;99.90;;;;;;5009522;28;20118;-69
2023/12/26 00:51:16;;;;;;;2.35;0.98;;;9.10;99.90;;;;;;5021649;28;20030;-69
2023/12/26 00:53:41;;;;;;;2.70;1.05;;;9.30;99.90;;;;;;5017516;28;20179;-69
2023/12/26 00:56:07;;;;;;;1.75;1.30;;;9.30;99.90;;;;;;5019400;28;20052;-70
2023/12/26 00:58:33;;;;;;;2.85;1.42;;;9.30;99.90;;;;;;5023783;28;20049;-69
2023/12/26 01:00:59;;;;;;;4.40;1.38;;;9.10;99.90;;;;;;5023086;28;20037;-68
2023/12/26 01:03:24;;;;;;;3.85;1.58;;;9.10;99.90;;;;;;5025548;28;20048;-69
2023/12/26 01:05:51;;;;;;;2.22;1.55;;;9.20;99.90;;;;;;5020179;28;20482;-69
2023/12/26 01:08:18;;;;;;;2.47;1.35;;;9.30;99.90;;;;;;5027439;28;20098;-69
2023/12/26 01:10:44;;;;;;;2.08;1.42;;;9.20;99.90;;;;;;5031372;28;20132;-69
2023/12/26 01:13:10;;;;;;;2.40;1.20;;;9.40;99.90;;;;;;5025800;28;20033;-70
2023/12/26 01:15:36;;;;;;;2.13;1.00;;;9.40;99.90;;;;;;5037959;28;20044;-72
2023/12/26 01:18:02;;;;;;;1.60;0.90;;;9.40;99.90;;;;;;5029591;28;20446;-70
2023/12/26 01:20:28;;;;;;;2.10;0.80;;;9.40;99.90;;;;;;5007248;28;20081;-70
2023/12/26 01:22:53;;;;;;;4.00;0.75;;;9.40;99.90;;;;;;5031231;28;20417;-69
2023/12/26 01:25:19;;;;;;;2.53;0.80;;;9.40;99.90;;;;;;5025955;28;20033;-69
2023/12/26 01:27:45;;;;;;;1.75;0.70;;;9.10;99.90;;;;;;5022607;28;20045;-67
2023/12/26 01:30:11;;;;;;;2.00;0.80;;;9.20;99.90;;;;;;5018902;28;20049;-69
2023/12/26 01:32:36;;;;;;;2.25;0.77;;;9.40;99.90;;;;;;5030999;28;20120;-69
2023/12/26 01:35:02;;;;;;;1.75;0.63;;;9.40;99.90;;;;;;5022067;28;20061;-69
2023/12/26 01:37:28;;;;;;;3.67;0.88;;;9.00;99.90;;;;;;5025543;28;20040;-69
2023/12/26 01:39:53;;;;;;;1.42;0.63;;;9.20;99.90;;;;;;5015431;28;20041;-70
2023/12/26 01:42:19;;;;;;;2.10;0.77;;;9.10;99.90;;;;;;5031901;28;20047;-70
2023/12/26 01:44:45;;;;;;;3.75;0.88;;;9.10;99.90;;;;;;5037792;28;20085;-71
2023/12/26 01:47:12;;;;;;;2.63;0.80;;;9.00;99.90;;;;;;5038246;28;20450;-70
2023/12/26 01:49:39;;;;;;;4.03;0.80;;;9.30;99.90;;;;;;5042202;28;20493;-69
2023/12/26 01:52:08;;;;;;;2.33;0.90;;;9.30;99.90;;;;;;5014351;28;20603;-69
2023/12/26 01:54:35;;;;;;;5.72;1.00;;;9.40;99.90;;;;;;5035004;28;20049;-71
2023/12/26 01:57:02;;;;;;;5.22;0.80;;;9.10;99.90;;;;;;5041047;28;20070;-68
2023/12/26 01:59:28;;;;;;;3.58;0.90;;;9.00;99.90;;;;;;5025716;28;20040;-71
2023/12/26 02:01:54;;;;;;;5.25;1.33;;;9.20;99.90;;;;;;5022713;28;20044;-70
2023/12/26 02:04:20;;;;;;;6.68;1.25;;;9.10;99.90;;;;;;5020300;28;20044;-71
2023/12/26 02:06:48;;;;;;;3.75;0.90;;;9.30;99.90;;;;;;5011038;28;20048;-68
2023/12/26 02:09:14;;;;;;;8.50;1.45;;;9.30;99.90;;;;;;5032662;28;20629;-70
2023/12/26 02:11:40;;;;;;;10.13;1.60;;;9.00;99.90;;;;;;5042175;28;20045;-70
2023/12/26 02:14:06;;;;;;;7.93;1.27;;;8.90;99.90;;;;;;5033176;28;20356;-69
2023/12/26 02:16:35;;;;;;;5.60;1.17;;;9.10;99.90;;;;;;5045756;28;20079;-68
2023/12/26 02:19:01;;;;;;;9.20;1.50;;;9.00;99.90;;;;;;5036423;28;20481;-70
2023/12/26 02:21:27;;;;;;;5.18;1.20;;;9.10;99.90;;;;;;5032043;28;20037;-71
2023/12/26 02:23:56;;;;;;;8.60;1.15;;;9.10;99.90;;;;;;5045197;28;20041;-69
2023/12/26 02:26:28;;;;;;;9.10;1.48;;;8.90;99.90;;;;;;5019241;28;20045;-71
2023/12/26 02:28:55;;;;;;;7.32;1.33;;;9.20;99.90;;;;;;5038851;28;20045;-70
2023/12/26 02:31:22;;;;;;;5.68;1.30;;;9.20;99.90;;;;;;5023814;28;20053;-71
2023/12/26 02:33:48;;;;;;;6.75;1.83;;;8.90;99.90;;;;;;5024162;28;20098;-69
2023/12/26 02:36:14;;;;;;;12.38;1.50;;;9.00;99.90;;;;;;5028306;28;20545;-69
2023/12/26 02:38:40;;;;;;;6.80;1.30;;;8.90;99.90;;;;;;5017776;28;20118;-71
2023/12/26 02:41:06;;;;;;;11.60;1.90;;;8.80;99.90;;;;;;5018244;28;20096;-70
2023/12/26 02:43:33;;;;;;;14.20;2.60;;;8.80;99.90;;;;;;5027705;28;20598;-71
2023/12/26 02:45:59;;;;;;;7.40;1.50;;;8.90;99.90;;;;;;5040646;28;20064;-69
2023/12/26 02:48:24;;;;;;;5.43;1.45;;;8.70;99.90;;;;;;5020846;28;20038;-69
2023/12/26 02:50:50;;;;;;;6.65;1.60;;;8.80;99.90;;;;;;5042957;28;20043;-71
2023/12/26 02:53:16;;;;;;;9.85;1.42;;;8.80;99.90;;;;;;5012366;28;20045;-71
2023/12/26 02:55:42;;;;;;;9.30;1.50;;;9.00;99.90;;;;;;5032685;28;20033;-70
2023/12/26 02:58:07;;;;;;;8.35;1.50;;;8.70;99.90;;;;;;5025445;28;20056;-70
2023/12/26 03:00:34;;;;;;;9.27;1.88;;;8.90;99.90;;;;;;5020791;28;20053;-71
2023/12/26 03:03:00;;;;;;;10.48;1.48;;;8.90;99.90;;;;;;5032960;28;20072;-72
2023/12/26 03:05:25;;;;;;;10.38;1.33;;;8.60;99.90;;;;;;5012997;28;20118;-68
2023/12/26 03:07:51;;;;;;;10.23;1.80;;;8.50;99.90;;;;;;5037832;28;20179;-70
2023/12/26 03:10:17;;;;;;;8.82;1.42;;;8.70;99.90;;;;;;5034266;28;20041;-69
2023/12/26 03:12:42;;;;;;;13.48;2.17;;;8.50;99.90;;;;;;5028032;28;20489;-71
2023/12/26 03:15:10;;;;;;;9.50;1.42;;;8.70;99.90;;;;;;5027418;28;20048;-70
2023/12/26 03:17:36;;;;;;;10.10;1.52;;;8.60;99.90;;;;;;5043228;28;20044;-72
2023/12/26 03:20:01;;;;;;;8.32;1.63;;;8.70;99.90;;;;;;5035186;28;20371;-72
2023/12/26 03:22:27;;;;;;;16.77;1.90;;;8.60;99.90;;;;;;5029544;28;20502;-71
2023/12/26 03:24:53;;;;;;;7.30;1.33;;;8.50;99.90;;;;;;5028168;28;22001;-69
2023/12/26 03:27:18;;;;;;;12.35;2.10;;;8.50;99.90;;;;;;5018219;28;20057;-71
2023/12/26 03:29:44;;;;;;;7.10;1.25;;;8.50;99.90;;;;;;5023666;28;20045;-69
2023/12/26 03:32:10;;;;;;;8.43;1.58;;;8.20;99.90;;;;;;5036693;28;20034;-72
2023/12/26 03:34:39;;;;;;;8.40;1.48;;;8.30;99.90;;;;;;5026258;28;20116;-71
2023/12/26 03:37:05;;;;;;;7.50;1.40;;;8.50;99.90;;;;;;5026447;28;20083;-72
2023/12/26 03:39:32;;;;;;;6.90;1.35;;;8.30;99.90;;;;;;5019260;28;20467;-70
2023/12/26 03:41:58;;;;;;;5.68;1.63;;;8.30;99.90;;;;;;5028048;28;20494;-70
2023/12/26 03:44:23;;;;;;;9.30;1.40;;;8.20;99.90;;;;;;5045296;28;20048;-69
2023/12/26 03:46:49;;;;;;;6.80;1.50;;;8.10;99.90;;;;;;5028401;28;20044;-68
2023/12/26 03:49:15;;;;;;;6.68;1.10;;;8.00;99.90;;;;;;5031778;28;20107;-70
2023/12/26 03:51:40;;;;;;;10.60;1.30;;;7.80;99.90;;;;;;5027853;28;20073;-70
2023/12/26 03:54:06;;;;;;;4.70;1.10;;;7.70;99.90;;;;;;5038779;28;20041;-71
2023/12/26 03:56:33;;;;;;;5.25;1.00;;;7.60;99.90;;;;;;5032430;28;20521;-72
2023/12/26 03:59:00;;;;;;;4.43;0.80;;;7.40;99.90;;;;;;5025901;28;20037;-70
2023/12/26 04:01:26;;;;;;;6.20;1.58;;;7.40;99.90;;;;;;5029980;28;20041;-71
2023/12/26 04:03:53;;;;;;;8.02;1.20;;;7.30;99.90;;;;;;5027536;28;20075;-71
2023/12/26 04:06:18;;;;;;;5.43;1.40;;;7.10;99.90;;;;;;5008815;28;20106;-70
2023/12/26 04:08:44;;;;;;;7.43;1.23;;;7.20;99.90;;;;;;5025302;28;20099;-70
2023/12/26 04:11:10;;;;;;;10.95;1.20;;;6.90;99.90;;;;;;5026562;28;20037;-72
2023/12/26 04:13:36;;;;;;;12.93;1.67;;;6.80;99.90;;;;;;5026878;28;20140;-69
2023/12/26 04:16:02;;;;;;;4.43;1.63;;;7.00;99.90;;;;;;5036813;28;20045;-70
2023/12/26 04:18:28;;;;;;;7.00;1.30;;;6.70;99.90;;;;;;5036965;28;20044;-70
2023/12/26 04:20:54;;;;;;;8.40;1.60;;;6.70;99.90;;;;;;5025489;28;20049;-70
2023/12/26 04:23:20;;;;;;;6.85;1.20;;;6.90;99.90;;;;;;5011557;28;20500;-70
2023/12/26 04:25:45;;;;;;;10.48;1.98;;;6.70;99.90;;;;;;5014065;28;20530;-69
2023/12/26 04:28:11;;;;;;;11.20;1.60;;;6.60;99.90;;;;;;5028981;28;20116;-70
2023/12/26 04:30:37;;;;;;;7.55;1.52;;;6.80;99.90;;;;;;5032605;28;20145;-70
2023/12/26 04:33:05;;;;;;;11.40;1.88;;;6.70;99.90;;;;;;5037264;28;20060;-70
2023/12/26 04:35:31;;;;;;;9.85;1.67;;;6.70;99.90;;;;;;5033275;28;20125;-69
2023/12/26 04:37:56;;;;;;;9.13;1.70;;;6.70;99.90;;;;;;5033039;28;20497;-70
2023/12/26 04:40:22;;;;;;;10.82;1.55;;;6.70;99.90;;;;;;5038677;28;20114;-70
2023/12/26 04:42:48;;;;;;;12.00;2.00;;;6.50;99.90;;;;;;5041943;28;20038;-68
2023/12/26 04:45:14;;;;;;;6.90;2.05;;;6.60;99.90;;;;;;5035933;28;20135;-70
2023/12/26 04:47:39;;;;;;;10.70;1.98;;;6.60;99.90;;;;;;5032608;28;20043;-72
2023/12/26 04:50:05;;;;;;;7.03;1.30;;;6.50;99.90;;;;;;5025810;28;20069;-70
2023/12/26 04:52:31;;;;;;;9.57;1.92;;;6.60;99.90;;;;;;5027130;28;20466;-72
2023/12/26 04:54:57;;;;;;;18.15;3.13;;;6.40;99.90;;;;;;5036224;28;20040;-69
2023/12/26 04:57:22;;;;;;;12.75;2.70;;;6.40;99.90;;;;;;5028947;28;20742;-71
2023/12/26 04:59:48;;;;;;;12.07;1.63;;;6.30;99.90;;;;;;5028150;28;20068;-70
2023/12/26 05:02:14;;;;;;;13.07;2.17;;;6.50;99.90;;;;;;5041800;28;20102;-70
2023/12/26 05:04:39;;;;;;;13.48;2.17;;;6.50;99.90;;;;;;5015869;28;20443;-69
2023/12/26 05:07:07;;;;;;;14.43;2.35;;;6.30;99.90;;;;;;5022120;28;20037;-69
2023/12/26 05:09:32;;;;;;;13.95;2.88;;;6.40;99.90;;;;;;5025352;28;20299;-70
2023/12/26 05:11:59;;;;;;;6.95;1.60;;;6.30;99.90;;;;;;5027885;28;20434;-70
2023/12/26 05:14:25;;;;;;;13.80;2.05;;;6.30;99.90;;;;;;5029156;28;20037;-71
2023/12/26 05:16:51;;;;;;;6.25;1.75;;;6.40;99.90;;;;;;5030638;28;20087;-72
2023/12/26 05:19:17;;;;;;;10.20;2.03;;;6.40;99.90;;;;;;5030964;28;20042;-71
2023/12/26 05:21:43;;;;;;;10.75;2.65;;;6.40;99.90;;;;;;5018268;28;20127;-69
2023/12/26 05:24:09;;;;;;;13.82;2.70;;;6.50;99.90;;;;;;5011083;28;20044;-70
2023/12/26 05:26:42;;;;;;;18.23;2.85;;;6.50;99.90;;;;;;5025336;28;20048;-72
2023/12/26 05:29:09;;;;;;;11.93;1.95;;;6.50;99.90;;;;;;5024968;28;20033;-69
2023/12/26 05:31:34;;;;;;;13.02;1.63;;;6.40;99.90;;;;;;5034254;28;20144;-69
2023/12/26 05:34:03;;;;;;;8.82;2.28;;;6.40;99.90;;;;;;5030544;28;20125;-69
2023/12/26 05:36:30;;;;;;;10.15;2.13;;;6.30;99.90;;;;;;5020172;28;20490;-69
2023/12/26 05:38:56;;;;;;;11.25;1.50;;;6.40;99.90;;;;;;5004224;28;20037;-70
2023/12/26 05:41:21;;;;;;;9.63;1.58;;;6.50;99.90;;;;;;5029744;28;20052;-70
2023/12/26 05:43:47;;;;;;;9.68;1.73;;;6.60;99.90;;;;;;5031981;28;20037;-68
2023/12/26 05:46:13;;;;;;;10.40;2.05;;;6.60;99.90;;;;;;5019925;28;20121;-69
2023/12/26 05:48:42;;;;;;;14.77;2.08;;;6.70;99.90;;;;;;5037631;28;20508;-70
2023/12/26 05:51:08;;;;;;;11.20;2.13;;;6.70;99.90;;;;;;5030683;28;20037;-68
2023/12/26 05:53:33;;;;;;;6.57;1.75;;;6.80;99.90;;;;;;5031171;28;20413;-69
2023/12/26 05:55:59;;;;;;;15.35;2.40;;;6.80;99.90;;;;;;5034775;28;20551;-70
2023/12/26 05:58:25;;;;;;;13.20;1.92;;;6.80;99.90;;;;;;5039253;28;20125;-71
2023/12/26 06:00:52;;;;;;;10.65;1.75;;;6.90;99.90;;;;;;5012536;28;20046;-72
2023/12/26 06:03:17;;;;;;;9.52;1.88;;;6.90;99.90;;;;;;5030033;28;20044;-68
2023/12/26 06:05:44;;;;;;;14.25;2.05;;;6.90;99.90;;;;;;5025688;28;20441;-69
2023/12/26 06:08:11;;;;;;;10.45;1.90;;;7.00;99.90;;;;;;5014683;28;20493;-71
2023/12/26 06:10:36;;;;;;;10.27;1.55;;;7.00;99.90;;;;;;5019574;28;20057;-72
2023/12/26 06:13:03;;;;;;;9.35;1.70;;;7.10;99.90;;;;;;5033247;28;20053;-72
2023/12/26 06:15:29;;;;;;;9.55;1.70;;;7.00;99.90;;;;;;5026529;28;20056;-70
2023/12/26 06:17:56;;;;;;;11.57;1.70;;;7.10;99.90;;;;;;5014442;28;20091;-68
2023/12/26 06:20:24;;;;;;;7.38;1.70;;;7.10;99.90;;;;;;5030947;28;20045;-68
2023/12/26 06:22:50;;;;;;;10.85;1.80;;;7.10;99.90;;;;;;5036358;28;20556;-68
2023/12/26 06:25:16;;;;;;;7.57;1.52;;;7.10;99.90;;;;;;5030194;28;20119;-69
2023/12/26 06:27:41;;;;;;;10.35;1.50;;;7.20;99.90;;;;;;5029908;28;20076;-69
2023/12/26 06:30:07;;;;;;;6.68;1.05;;;7.20;99.90;;;;;;5036643;28;20498;-72
2023/12/26 06:32:33;;;;;;;8.45;1.63;;;7.30;99.90;;;;;;5038090;28;20396;-69
2023/12/26 06:34:59;;;;;;;6.75;1.30;;;7.30;99.90;;;;;;5027892;28;20120;-67
2023/12/26 06:37:24;;;;;;;7.18;1.73;;;7.30;99.90;;;;;;5017461;28;20041;-69
2023/12/26 06:39:50;;;;;;;10.20;1.75;;;7.30;99.90;;;;;;5022702;28;20037;-70
2023/12/26 06:42:16;;;;;;;10.00;2.10;;;7.30;99.90;;;;;;5036307;28;20029;-70
2023/12/26 06:44:41;;;;;;;7.18;1.30;;;7.30;99.90;;;;;;5038506;28;20038;-69
2023/12/26 06:47:07;;;;;;;7.53;1.30;;;7.30;99.90;;;;;;5036076;28;20072;-67
2023/12/26 06:49:33;;;;;;;9.05;1.80;;;7.30;99.90;;;;;;5027972;28;20501;-71
2023/12/26 06:51:59;;;;;;;7.90;1.35;;;7.40;99.90;;;;;;5017185;28;20196;-69
2023/12/26 06:54:26;;;;;;;10.98;1.70;;;7.40;99.90;;;;;;5035124;28;20045;-69
2023/12/26 06:56:51;;;;;;;7.95;1.52;;;7.40;99.90;;;;;;5015668;28;20116;-69
2023/12/26 06:59:17;;;;;;;8.15;1.45;;;7.30;99.90;;;;;;5026629;28;20180;-70
2023/12/26 07:01:46;;;;;;;11.68;1.75;;;7.40;99.90;;;;;;5031458;28;20048;-70
2023/12/26 07:04:13;;;;;;;9.10;1.77;;;7.40;99.90;;;;;;5044049;28;20037;-70
2023/12/26 07:06:38;;;;;;;11.18;1.73;;;7.40;99.90;;;;;;5022178;28;20064;-70
2023/12/26 07:09:04;;;;;;;8.40;1.73;;;7.40;99.90;;;;;;5037401;28;20552;-69
2023/12/26 07:11:29;;;;;;;9.27;1.65;;;7.40;99.90;;;;;;5021288;28;20059;-70
2023/12/26 07:13:55;;;;;;;10.50;1.83;;;7.40;99.90;;;;;;5050080;28;20041;-68
2023/12/26 07:16:21;;;;;;;12.23;2.05;;;7.40;99.90;;;;;;5035380;28;20434;-68
2023/12/26 07:18:47;;;;;;;15.07;1.80;;;7.40;99.90;;;;;;5030260;28;20112;-69
2023/12/26 07:21:16;;;;;;;8.43;2.08;;;7.40;99.90;;;;;;5027306;28;20037;-68
2023/12/26 07:23:44;;;;;;;10.55;1.95;;;7.40;99.90;;;;;;5041112;28;20447;-68
2023/12/26 07:26:11;;;;;;;12.15;2.25;;;7.40;99.90;;;;;;5030509;28;20033;-70
2023/12/26 07:28:36;;;;;;;9.07;1.70;;;7.40;99.90;;;;;;5032448;28;20041;-68
2023/12/26 07:31:02;;;;;;;9.35;1.77;;;7.40;99.90;;;;;;5034762;28;20110;-70
2023/12/26 07:33:28;;;;;;;20.20;2.63;;;7.40;99.90;;;;;;5022903;28;20050;-69
2023/12/26 07:35:57;;;;;;;11.23;2.95;;;7.40;40.10;;;;;;5011337;28;20060;-68
2023/12/26 07:38:24;;;;;;;9.50;2.88;;;7.40;74.10;;;;;;5017051;28;20041;-70
2023/12/26 07:40:50;;;;;;;11.65;2.25;;;7.40;91.60;;;;;;5024169;28;20453;-68
2023/12/26 07:43:16;;;;;;;12.70;2.15;;;7.50;26.40;;;;;;5045938;28;20036;-71
2023/12/26 07:45:42;;;;;;;9.93;1.60;;;7.40;18.70;;;;;;5032057;28;20045;-68
2023/12/26 07:48:08;;;;;;;13.90;2.00;;;7.40;1.00;;;;;;5028555;28;20370;-67
2023/12/26 07:50:34;;;;;;;14.50;1.75;;;7.50;1.00;;;;;;5028847;28;20049;-70
2023/12/26 07:52:59;;;;;;;16.13;1.98;;;7.40;1.00;;;;;;5028475;28;20045;-68
2023/12/26 07:55:25;;;;;;;11.63;1.85;;;7.50;1.00;;;;;;5042910;28;20037;-70
2023/12/26 07:57:51;;;;;;;10.23;2.03;;;7.50;1.00;;;;;;5048560;28;20039;-69
2023/12/26 08:00:16;;;;;;;13.07;1.70;;;7.50;99.90;;;;;;5041749;28;20040;-69
2023/12/26 08:02:42;;;;;;;12.30;1.77;;;7.50;99.90;;;;;;5050806;28;20043;-67
2023/12/26 08:05:09;;;;;;;9.02;1.90;;;7.50;99.90;;;;;;5031021;28;20049;-68
2023/12/26 08:07:35;;;;;;;11.52;1.98;;;7.50;99.90;;;;;;5034013;28;20057;-68
2023/12/26 08:10:00;;;;;;;9.35;1.85;;;7.60;99.90;;;;;;5040024;28;20095;-68
2023/12/26 08:12:26;;;;;;;18.27;2.33;;;7.60;1.00;;;;;;5032582;28;20496;-68
2023/12/26 08:14:51;;;;;;;10.73;2.40;;;7.50;99.90;;;;;;5042466;28;20040;-66
2023/12/26 08:17:17;;;;;;;16.45;2.35;;;7.60;99.90;;;;;;5040069;28;20026;-68
2023/12/26 08:19:43;;;;;;;8.40;2.00;;;7.60;99.90;;;;;;5016274;28;20061;-68
2023/12/26 08:22:09;;;;;;;10.10;2.55;;;7.60;99.90;;;;;;5031821;28;20557;-66
2023/12/26 08:24:34;;;;;;;17.08;2.08;;;7.60;99.90;;;;;;5038709;28;20076;-69
2023/12/26 08:27:00;;;;;;;11.75;2.38;;;7.60;99.90;;;;;;5032462;28;20041;-68
2023/12/26 08:29:26;;;;;;;7.97;1.95;;;7.60;99.90;;;;;;5046806;28;20480;-67
2023/12/26 08:31:53;;;;;;;14.18;2.05;;;7.60;99.90;;;;;;5034892;28;20083;-67
2023/12/26 08:34:19;;;;;;;10.57;2.00;;;7.60;99.90;;;;;;5036640;28;20417;-67
2023/12/26 08:36:45;;;;;;;8.10;1.77;;;7.60;99.90;;;;;;5040010;28;20068;-67
2023/12/26 08:39:10;;;;;;;8.88;1.65;;;7.60;99.90;;;;;;5032219;28;20851;-68
2023/12/26 08:41:37;;;;;;;7.38;2.00;;;7.60;99.90;;;;;;5019131;28;20041;-66
2023/12/26 08:44:03;;;;;;;10.73;1.60;;;7.60;99.90;;;;;;5033830;28;20129;-66
2023/12/26 08:46:29;;;;;;;10.90;2.13;;;7.60;99.90;;;;;;5030504;28;20049;-66
2023/12/26 08:48:55;;;;;;;13.68;2.40;;;7.60;99.90;;;;;;5038848;28;20043;-67
2023/12/26 08:51:21;;;;;;;14.18;3.00;;;7.60;99.90;;;;;;5030035;28;20401;-68
2023/12/26 08:53:47;;;;;;;14.90;2.00;;;7.70;99.90;;;;;;5027380;28;20116;-67
2023/12/26 08:56:13;;;;;;;15.55;2.25;;;7.70;99.90;;;;;;5015147;28;20049;-68
2023/12/26 08:58:39;;;;;;;14.95;2.38;;;7.70;99.90;;;;;;5035946;28;20080;-67
2023/12/26 09:01:06;;;;;;;16.30;2.53;;;7.70;99.90;;;;;;5030283;28;20033;-68
2023/12/26 09:03:32;;;;;;;16.52;2.30;;;7.80;99.90;;;;;;5014486;28;20037;-66
2023/12/26 09:05:57;;;;;;;9.38;2.33;;;7.80;99.90;;;;;;5028921;28;20033;-67
2023/12/26 09:08:23;;;;;;;13.75;2.25;;;7.80;37.00;;;;;;5032852;28;20079;-67
2023/12/26 09:10:49;;;;;;;12.88;1.67;;;7.80;93.10;;;;;;5041358;28;20568;-67
2023/12/26 09:13:16;;;;;;;10.98;2.45;;;7.90;79.40;;;;;;5038250;28;20206;-67
2023/12/26 09:15:43;;;;;;;14.60;2.10;;;7.90;1.00;;;;;;5032943;28;20045;-69
2023/12/26 09:18:09;;;;;;;10.27;1.75;;;7.90;1.00;;;;;;5037139;28;20103;-68
2023/12/26 09:20:34;;;;;;;10.30;1.90;;;8.00;99.90;;;;;;5029192;28;20037;-67
2023/12/26 09:23:00;;;;;;;14.02;2.33;;;8.00;99.90;;;;;;5040550;28;20049;-69
2023/12/26 09:25:26;;;;;;;15.63;3.03;;;8.00;99.90;;;;;;5022571;28;20117;-68
2023/12/26 09:27:51;;;;;;;15.20;3.10;;;8.00;99.90;;;;;;5028206;28;20099;-67
2023/12/26 09:30:18;;;;;;;16.95;2.60;;;8.10;99.90;;;;;;5032101;28;20120;-68
2023/12/26 09:32:45;;;;;;;14.45;4.38;;;8.10;99.90;;;;;;5034867;28;20099;-67
2023/12/26 09:35:11;;;;;;;14.65;7.28;;;8.10;99.90;;;;;;5038426;28;20056;-68
2023/12/26 09:37:38;;;;;;;10.95;2.35;;;8.10;99.90;;;;;;5037790;28;20048;-68
2023/12/26 09:40:06;;;;;;;16.70;3.75;;;8.20;99.90;;;;;;5029058;28;20034;-68
2023/12/26 09:42:32;;;;;;;19.33;6.32;;;8.30;99.90;;;;;;5031440;28;20095;-67
2023/12/26 09:44:58;;;;;;;14.00;3.78;;;8.30;99.90;;;;;;5041066;28;20041;-67
2023/12/26 09:47:25;;;;;;;14.27;2.40;;;8.40;99.90;;;;;;5028778;28;20148;-67
2023/12/26 09:49:53;;;;;;;10.40;1.88;;;8.40;99.90;;;;;;5033575;28;20091;-68
2023/12/26 09:52:21;;;;;;;10.02;1.70;;;8.40;99.90;;;;;;5033576;28;20095;-68
2023/12/26 09:54:49;;;;;;;12.93;2.33;;;8.40;99.90;;;;;;5034147;28;20033;-68
2023/12/26 09:57:15;;;;;;;11.43;2.00;;;8.40;99.90;;;;;;5027708;28;20041;-67
2023/12/26 09:59:42;;;;;;;10.82;2.83;;;8.50;99.90;;;;;;5037407;28;20041;-69
2023/12/26 10:02:12;;;;;;;11.27;2.03;;;8.50;99.90;;;;;;5031960;28;20045;-69
2023/12/26 10:04:39;;;;;;;15.82;2.85;;;8.50;99.90;;;;;;5043498;28;20044;-68
2023/12/26 10:07:04;;;;;;;6.38;2.10;;;8.60;99.90;;;;;;5037732;28;20065;-68
2023/12/26 10:09:30;;;;;;;13.10;2.13;;;8.60;99.90;;;;;;5020253;28;20115;-68
2023/12/26 10:11:56;;;;;;;12.13;2.00;;;8.70;99.90;;;;;;5048253;28;20041;-69
2023/12/26 10:14:31;;;;;;;15.15;2.30;;;8.90;99.90;;;;;;5033338;28;20124;-67
2023/12/26 10:16:57;;;;;;;17.63;2.58;;;8.90;99.90;;;;;;5036626;28;20121;-70
2023/12/26 10:19:24;;;;;;;12.68;2.33;;;9.00;99.90;;;;;;5033762;28;20033;-67
2023/12/26 10:21:50;;;;;;;14.02;2.15;;;9.00;99.90;;;;;;5038341;28;20044;-66
2023/12/26 10:24:17;;;;;;;11.15;1.92;;;8.90;99.90;;;;;;5040304;28;20694;-68
2023/12/26 10:26:43;;;;;;;17.70;3.08;;;8.90;99.90;;;;;;5042699;28;20448;-68
2023/12/26 10:29:15;;;;;;;9.80;2.15;;;8.80;99.90;;;;;;5034693;28;20045;-68
2023/12/26 10:31:42;;;;;;;10.48;2.20;;;8.80;99.90;;;;;;5043159;28;20099;-69
2023/12/26 10:34:15;;;;;;;9.65;1.98;;;8.80;99.90;;;;;;5034712;28;20037;-68
2023/12/26 10:36:45;;;;;;;14.48;2.88;;;8.90;99.90;;;;;;5050307;28;20483;-67
2023/12/26 10:39:13;;;;;;;12.88;1.90;;;9.00;99.90;;;;;;5046404;28;20079;-68
2023/12/26 10:41:46;;;;;;;15.77;2.80;;;9.00;99.90;;;;;;5051638;28;20131;-68
2023/12/26 10:44:15;;;;;;;11.30;2.88;;;8.90;99.90;;;;;;5050043;28;20048;-70
2023/12/26 10:46:41;;;;;;;10.00;2.00;;;8.90;99.90;;;;;;5032032;28;20069;-68
2023/12/26 10:49:10;;;;;;;14.20;2.10;;;8.80;99.90;;;;;;5019608;28;20041;-68
2023/12/26 10:51:46;;;;;;;14.77;2.58;;;8.80;99.90;;;;;;5032373;28;20385;-67
2023/12/26 10:54:24;;;;;;;11.43;2.15;;;8.80;99.90;;;;;;5028251;28;22313;-67
2023/12/26 10:56:52;;;;;;;9.25;2.05;;;8.90;99.90;;;;;;5014883;28;20392;-68
2023/12/26 13:51:26;;;;;;;9.98;2.60;;;8.40;99.90;;;;;;5027307;28;20053;-67
2023/12/26 13:53:52;;;;;;;7.50;1.55;;;8.30;99.90;;;;;;5028660;28;20404;-67
2023/12/26 13:56:20;;;;;;;9.88;1.30;;;8.20;99.90;;;;;;5029655;28;20046;-67
2023/12/26 13:58:46;;;;;;;7.90;1.30;;;8.20;99.90;;;;;;5035273;28;20079;-67
2023/12/26 14:01:17;;;;;;;9.02;1.10;;;8.10;99.90;;;;;;5037272;28;20475;-67
2023/12/26 14:03:49;;;;;;;;;;;8.10;99.90;;;;;;5049627;28;20038;-69
2023/12/26 14:06:26;;;;;;;4.80;1.00;;;8.20;99.90;;;;;;5032189;28;19921;-68
2023/12/26 14:08:52;;;;;;;3.65;0.85;;;8.20;99.90;;;;;;5036677;28;20049;-67
2023/12/26 14:11:19;;;;;;;4.47;0.90;;;8.30;99.90;;;;;;5039525;28;20037;-69
2023/12/26 14:13:48;;;;;;;5.35;1.05;;;8.30;99.90;;;;;;5043317;28;20123;-69
2023/12/26 14:16:15;;;;;;;6.53;1.02;;;8.40;99.90;;;;;;5053648;28;20382;-66
2023/12/26 14:18:40;;;;;;;6.45;1.58;;;8.40;99.90;;;;;;5036212;28;20073;-68
2023/12/26 14:21:06;;;;;;;7.47;1.05;;;8.50;99.90;;;;;;5032156;28;20069;-68
2023/12/26 14:23:32;;;;;;;3.60;0.80;;;8.50;99.90;;;;;;5030963;28;20056;-68
2023/12/26 14:25:58;;;;;;;5.63;0.60;;;8.40;99.90;;;;;;5035664;28;20041;-68
2023/12/26 14:28:23;;;;;;;5.28;0.75;;;8.30;99.90;;;;;;5039289;28;20412;-67
2023/12/26 14:30:50;;;;;;;3.97;0.50;;;8.20;99.90;;;;;;5026437;28;20072;-68
2023/12/26 14:33:19;;;;;;;2.38;0.60;;;8.20;99.90;;;;;;5034645;28;20485;-68
2023/12/26 14:35:49;;;;;;;5.35;0.70;;;8.10;99.90;;;;;;5044435;28;20041;-67
2023/12/26 14:38:18;;;;;;;6.47;0.73;;;8.10;99.90;;;;;;5030631;28;20037;-68
2023/12/26 14:40:45;;;;;;;3.55;0.52;;;8.00;99.90;;;;;;5036204;28;20305;-68
2023/12/26 14:43:11;;;;;;;7.80;0.73;;;8.00;99.90;;;;;;5050674;28;20032;-68
2023/12/26 14:45:37;;;;;;;1.52;0.45;;;7.90;99.90;;;;;;5039017;28;20056;-68
2023/12/26 14:48:03;;;;;;;3.38;0.68;;;7.70;99.90;;;;;;5045833;28;20033;-67
2023/12/26 14:50:30;;;;;;;2.83;0.57;;;7.70;99.90;;;;;;5032205;28;20103;-68
2023/12/26 14:52:56;;;;;;;6.88;0.65;;;7.60;99.90;;;;;;5031508;28;20049;-67
2023/12/26 14:55:21;;;;;;;2.58;0.70;;;7.50;99.90;;;;;;5033882;28;20548;-67
2023/12/26 14:57:47;;;;;;;4.50;0.50;;;7.50;99.90;;;;;;5036124;28;20044;-69
2023/12/26 15:00:13;;;;;;;4.03;0.50;;;7.30;99.90;;;;;;5033414;28;20098;-68
2023/12/26 15:02:39;;;;;;;1.75;0.80;;;7.20;99.90;;;;;;5032438;28;20072;-68
2023/12/26 15:05:05;;;;;;;4.40;0.55;;;7.20;99.90;;;;;;5031333;28;20079;-66
2023/12/26 15:07:31;;;;;;;4.43;0.80;;;7.10;99.90;;;;;;5029858;28;20076;-66
2023/12/26 15:09:56;;;;;;;6.05;0.88;;;7.00;99.90;;;;;;5030386;28;20138;-66
2023/12/26 15:12:22;;;;;;;4.75;1.00;;;6.90;99.90;;;;;;5029271;28;20052;-66
2023/12/26 15:14:48;;;;;;;4.18;1.40;;;6.90;99.90;;;;;;5032740;28;20040;-66
2023/12/26 15:17:13;;;;;;;2.53;0.50;;;6.80;99.90;;;;;;5031665;28;20082;-66
2023/12/26 15:19:39;;;;;;;5.78;0.77;;;6.80;99.90;;;;;;5031575;28;20496;-66
2023/12/26 15:22:05;;;;;;;1.88;0.55;;;6.80;99.90;;;;;;5026197;28;20053;-67
2023/12/26 15:24:30;;;;;;;3.22;0.82;;;6.80;99.90;;;;;;5044211;28;20045;-66
2023/12/26 15:26:56;;;;;;;4.05;0.70;;;6.70;99.90;;;;;;5050814;28;20063;-67
2023/12/26 15:29:21;;;;;;;6.93;1.30;;;6.80;99.90;;;;;;5031786;28;20477;-67
2023/12/26 15:31:47;;;;;;;11.68;3.58;;;6.80;99.90;;;;;;5028476;28;20124;-66
2023/12/26 15:34:13;;;;;;;6.20;3.13;;;6.80;99.90;;;;;;5036357;28;20044;-66
2023/12/26 15:36:39;;;;;;;8.10;3.28;;;6.80;99.90;;;;;;5047601;28;20041;-66
2023/12/26 15:39:04;;;;;;;6.68;2.60;;;6.70;99.90;;;;;;5030139;28;20052;-67